createdAt,value
2019-05-03T10:04:13.294Z,25.40
2019-05-03T10:06:41.729Z,25.10
2019-05-03T10:09:10.105Z,24.90
2019-05-03T10:11:38.485Z,24.70
2019-05-03T10:14:06.903Z,24.60
2019-05-03T10:16:36.923Z,24.50
2019-05-03T10:19:05.301Z,24.50
2019-05-03T10:21:35.607Z,24.60
2019-05-03T10:24:05.722Z,24.80
2019-05-03T10:26:35.583Z,25.20
2019-05-03T10:29:05.436Z,25.00
2019-05-03T10:31:38.243Z,25.50
2019-05-03T10:34:06.623Z,26.30
2019-05-03T10:36:35.665Z,26.30
2019-05-03T10:39:05.231Z,26.10
2019-05-03T10:41:34.748Z,25.80
2019-05-03T10:44:03.290Z,25.50
2019-05-03T10:46:31.699Z,25.30
2019-05-03T10:49:00.087Z,25.00
2019-05-03T10:51:30.105Z,24.80
2019-05-03T10:54:00.028Z,24.60
2019-05-03T10:56:30.015Z,24.50
2019-05-03T10:59:00.044Z,24.30
2019-05-03T11:01:32.747Z,24.30
2019-05-03T11:04:01.167Z,24.20
2019-05-03T11:06:29.545Z,24.10
2019-05-03T11:08:59.671Z,24.00
2019-05-03T11:11:28.113Z,23.80
2019-05-03T11:13:56.479Z,23.80
2019-05-03T11:16:25.488Z,23.80
2019-05-03T11:18:54.893Z,23.80
2019-05-03T11:21:28.887Z,23.80
2019-05-03T11:23:54.525Z,23.80
2019-05-03T11:26:25.122Z,23.90
2019-05-03T11:28:53.039Z,23.90
2019-05-03T11:31:39.339Z,23.90
2019-05-03T11:34:12.418Z,23.90
2019-05-03T11:36:51.711Z,23.90
2019-05-03T11:39:20.091Z,23.90
2019-05-03T11:41:50.111Z,23.90
2019-05-03T11:44:36.449Z,23.90
2019-05-03T11:47:05.797Z,23.90
2019-05-03T11:49:34.850Z,24.00
2019-05-03T11:52:03.383Z,24.00
2019-05-03T11:54:31.772Z,23.90
2019-05-03T11:57:01.790Z,23.90
2019-05-03T11:59:30.179Z,23.90
2019-05-03T12:02:09.425Z,24.00
2019-05-03T12:04:37.881Z,24.00
2019-05-03T12:07:06.309Z,24.00
2019-05-03T12:09:34.683Z,24.10
2019-05-03T12:12:04.883Z,24.10
2019-05-03T12:14:34.640Z,24.10
2019-05-03T12:17:20.108Z,24.10
2019-05-03T12:19:46.475Z,24.00
2019-05-03T12:22:16.147Z,24.10
2019-05-03T12:24:45.741Z,24.10
2019-05-03T12:27:15.003Z,24.20
2019-05-03T12:29:44.715Z,24.30
2019-05-03T12:32:14.424Z,24.40
2019-05-03T12:34:42.988Z,24.50
2019-05-03T12:37:11.411Z,24.50
2019-05-03T12:39:39.790Z,24.60
2019-05-03T12:42:08.162Z,24.60
2019-05-03T12:44:36.588Z,24.60
2019-05-03T12:47:05.976Z,24.60
2019-05-03T12:49:35.786Z,24.60
2019-05-03T12:52:05.358Z,24.60
2019-05-03T12:54:35.572Z,24.60
2019-05-03T12:57:05.033Z,24.60
2019-05-03T12:59:38.295Z,24.70
2019-05-03T13:02:15.480Z,24.90
2019-05-03T13:04:45.725Z,24.90
2019-05-03T13:07:15.860Z,24.80
2019-05-03T13:09:45.320Z,24.60
2019-05-03T13:12:15.476Z,24.60
2019-05-03T13:14:45.384Z,24.40
2019-05-03T13:17:15.223Z,24.00
2019-05-03T13:19:45.186Z,23.70
2019-05-03T13:22:13.860Z,23.30
2019-05-03T13:24:42.216Z,23.40
2019-05-03T13:27:10.595Z,23.60
2019-05-03T13:29:39.007Z,23.70
2019-05-03T13:32:07.382Z,23.70
2019-05-03T13:34:35.759Z,23.80
2019-05-03T13:37:04.148Z,24.00
2019-05-03T13:39:32.532Z,24.00
2019-05-03T13:42:00.959Z,24.10
2019-05-03T13:44:29.419Z,24.10
2019-05-03T13:46:57.796Z,24.00
2019-05-03T13:49:26.637Z,23.90
2019-05-03T13:51:55.078Z,23.60
2019-05-03T13:54:25.389Z,23.50
2019-05-03T13:56:55.206Z,23.40
2019-05-03T13:59:24.661Z,23.30
2019-05-03T14:01:54.528Z,23.40
2019-05-03T14:04:23.099Z,23.40
2019-05-03T14:06:51.490Z,23.40
2019-05-03T14:09:19.876Z,23.30
2019-05-03T14:11:48.303Z,23.10
2019-05-03T14:14:16.751Z,22.40
2019-05-03T14:16:45.289Z,22.30
2019-05-03T14:19:15.356Z,22.20
2019-05-03T14:21:45.387Z,22.10
2019-05-03T14:24:15.587Z,22.00
2019-05-03T14:26:44.748Z,21.90
2019-05-03T14:29:14.828Z,21.80
2019-05-03T14:31:45.360Z,21.70
2019-05-03T14:34:16.998Z,21.60
2019-05-03T14:36:44.987Z,22.50
2019-05-03T14:40:21.223Z,22.60
2019-05-03T14:42:49.593Z,23.00
2019-05-03T14:45:17.985Z,23.40
2019-05-03T14:47:46.387Z,23.60
2019-05-03T14:50:15.134Z,23.70
2019-05-03T14:52:45.496Z,23.80
2019-05-03T14:55:15.324Z,23.70
2019-05-03T14:57:45.344Z,23.60
2019-05-03T15:00:17.313Z,23.90
2019-05-03T15:02:50.728Z,24.50
2019-05-03T15:05:17.063Z,24.50
2019-05-03T15:07:45.887Z,24.30
2019-05-03T15:10:15.066Z,24.10
2019-05-03T15:12:45.247Z,23.90
2019-05-03T15:15:14.664Z,23.80
2019-05-03T15:17:43.139Z,23.60
2019-05-03T15:20:11.519Z,23.50
2019-05-03T15:22:39.919Z,23.40
2019-05-03T15:25:08.341Z,23.40
2019-05-03T15:27:36.718Z,23.40
2019-05-03T15:30:06.733Z,23.30
2019-05-03T15:32:35.441Z,23.30
2019-05-03T15:35:06.205Z,23.20
2019-05-03T15:37:35.764Z,23.20
2019-05-03T15:40:06.616Z,23.20
2019-05-03T15:42:35.499Z,23.20
2019-05-03T15:45:10.120Z,23.20
2019-05-03T15:47:56.335Z,23.10
2019-05-03T15:50:25.149Z,23.10
2019-05-03T15:52:55.032Z,23.10
2019-05-03T15:55:24.633Z,23.10
2019-05-03T15:57:55.181Z,23.10
2019-05-03T16:00:24.500Z,23.10
2019-05-03T16:02:54.747Z,23.00
2019-05-03T16:05:24.937Z,23.00
2019-05-03T16:07:55.155Z,23.00
2019-05-03T16:10:24.943Z,23.00
2019-05-03T16:12:54.541Z,22.90
2019-05-03T16:15:24.646Z,22.90
2019-05-03T16:17:54.719Z,22.90
2019-05-03T16:20:24.982Z,22.90
2019-05-03T16:22:54.470Z,22.90
2019-05-03T16:25:24.928Z,22.90
2019-05-03T16:28:04.807Z,22.90
2019-05-03T16:30:36.600Z,22.90
2019-05-03T16:33:04.995Z,22.90
2019-05-03T16:35:34.972Z,22.80
2019-05-03T16:38:03.401Z,22.90
2019-05-03T16:40:31.823Z,22.90
2019-05-03T16:43:00.195Z,22.90
2019-05-03T16:45:28.575Z,22.80
2019-05-03T16:47:56.958Z,22.80
2019-05-03T16:50:25.345Z,22.90
2019-05-03T16:52:54.982Z,22.80
2019-05-03T16:55:25.170Z,22.80
2019-05-03T16:57:54.883Z,22.80
2019-05-03T17:00:24.990Z,22.80
2019-05-03T17:02:55.135Z,22.80
2019-05-03T17:05:28.209Z,22.80
2019-05-03T17:08:16.297Z,22.70
2019-05-03T17:11:01.397Z,22.70
2019-05-03T17:13:29.841Z,22.70
2019-05-03T17:15:58.219Z,22.70
2019-05-03T17:18:26.602Z,22.70
2019-05-03T17:20:54.987Z,22.60
2019-05-03T17:23:24.613Z,22.60
2019-05-03T17:25:53.208Z,22.60
2019-05-03T17:28:21.601Z,22.70
2019-05-03T17:30:50.003Z,22.80
2019-05-03T17:33:18.397Z,22.90
2019-05-03T17:35:46.773Z,23.00
2019-05-03T17:38:15.177Z,23.00
2019-05-03T17:40:48.289Z,23.00
2019-05-03T17:43:18.307Z,23.00
2019-05-03T17:45:51.146Z,23.00
2019-05-03T17:48:19.581Z,22.80
2019-05-03T17:50:48.025Z,22.80
2019-05-03T17:53:34.669Z,22.70
2019-05-03T17:56:07.409Z,22.70
2019-05-03T17:58:46.226Z,22.80
2019-05-03T18:01:16.307Z,22.80
2019-05-03T18:03:46.367Z,22.90
2019-05-03T18:06:25.627Z,22.90
2019-05-03T18:09:11.881Z,23.00
2019-05-03T18:11:45.137Z,23.00
2019-05-03T18:14:14.688Z,23.00
2019-05-03T18:16:44.299Z,23.10
2019-05-03T18:19:12.772Z,23.10
2019-05-03T18:21:41.140Z,23.10
2019-05-03T18:24:09.591Z,23.10
2019-05-03T18:26:37.965Z,23.10
2019-05-03T18:29:06.331Z,23.10
2019-05-03T18:31:34.731Z,23.10
2019-05-03T18:34:05.041Z,23.10
2019-05-03T18:36:34.701Z,23.20
2019-05-03T18:39:03.208Z,23.20
2019-05-03T18:41:31.639Z,23.20
2019-05-03T18:44:14.768Z,23.20
2019-05-03T18:46:44.975Z,23.20
2019-05-03T18:49:14.667Z,23.30
2019-05-03T18:51:44.748Z,23.30
2019-05-03T18:54:13.145Z,23.30
2019-05-03T18:56:41.541Z,23.30
2019-05-03T18:59:09.931Z,23.30
2019-05-03T19:01:38.313Z,23.30
2019-05-03T19:04:17.287Z,23.30
2019-05-03T19:06:45.707Z,23.30
2019-05-03T19:09:15.905Z,23.30
2019-05-03T19:11:48.508Z,23.30
2019-05-03T19:14:25.496Z,23.30
2019-05-03T19:16:55.636Z,23.30
2019-05-03T19:19:25.659Z,23.30
2019-05-03T19:21:55.963Z,23.30
2019-05-03T19:24:24.588Z,23.30
2019-05-03T19:26:54.359Z,23.30
2019-05-03T19:29:24.669Z,23.30
2019-05-03T19:31:55.158Z,23.40
2019-05-03T19:34:24.258Z,23.30
2019-05-03T19:36:54.745Z,23.30
2019-05-03T19:39:25.098Z,23.30
2019-05-03T19:41:55.155Z,23.30
2019-05-03T19:44:23.303Z,23.30
2019-05-03T19:46:51.691Z,23.30
2019-05-03T19:49:20.052Z,23.30
2019-05-03T19:51:48.501Z,23.30
2019-05-03T19:54:16.889Z,23.30
2019-05-03T19:56:46.876Z,23.30
2019-05-03T19:59:17.024Z,23.30
2019-05-03T20:01:55.086Z,23.30
2019-05-03T20:04:27.220Z,23.30
2019-05-03T20:07:14.696Z,23.30
2019-05-03T20:09:44.570Z,23.30
2019-05-03T20:12:14.896Z,23.30
2019-05-03T20:14:44.992Z,23.30
2019-05-03T20:17:14.788Z,23.30
2019-05-03T20:19:45.064Z,23.20
2019-05-03T20:22:15.162Z,23.30
2019-05-03T20:24:44.744Z,23.30
2019-05-03T20:27:15.050Z,23.30
2019-05-03T20:29:44.346Z,23.20
2019-05-03T20:32:13.336Z,23.30
2019-05-03T20:34:41.714Z,23.30
2019-05-03T20:37:10.140Z,23.30
2019-05-03T20:39:38.525Z,23.30
2019-05-03T20:42:06.982Z,23.30
2019-05-03T20:44:37.017Z,23.30
2019-05-03T20:47:14.836Z,23.30
2019-05-03T20:49:42.952Z,23.30
2019-05-03T20:52:11.328Z,23.30
2019-05-03T20:54:39.741Z,23.30
2019-05-03T20:57:08.110Z,23.30
2019-05-03T20:59:45.344Z,23.40
2019-05-03T21:02:06.547Z,23.40
2019-05-03T21:04:35.448Z,23.50
2019-05-03T21:07:04.711Z,24.10
2019-05-03T21:09:34.574Z,24.10
2019-05-03T21:12:04.511Z,24.00
2019-05-03T21:14:34.911Z,23.90
2019-05-03T21:17:10.740Z,24.10
2019-05-03T21:19:49.821Z,24.40
2019-05-03T21:22:19.872Z,25.30
2019-05-03T21:24:52.460Z,25.40
2019-05-03T21:27:20.839Z,25.50
2019-05-03T21:29:51.081Z,25.30
2019-05-03T21:32:19.596Z,25.10
2019-05-03T21:34:48.324Z,24.80
2019-05-03T21:37:16.715Z,24.60
2019-05-03T21:39:45.449Z,24.40
2019-05-03T21:42:15.198Z,24.30
2019-05-03T21:44:44.808Z,24.10
2019-05-03T21:47:20.950Z,24.10
2019-05-03T21:49:50.970Z,24.10
2019-05-03T21:52:19.343Z,24.10
2019-05-03T21:54:47.746Z,24.20
2019-05-03T21:57:19.225Z,24.20
2019-05-03T21:59:47.636Z,24.30
2019-05-03T22:02:16.184Z,24.30
2019-05-03T22:06:55.072Z,24.20
2019-05-03T22:09:23.447Z,22.20
2019-05-03T22:11:52.241Z,19.40
2019-05-03T22:14:28.110Z,17.00
2019-05-03T22:17:04.573Z,15.10
2019-05-03T22:19:34.338Z,13.60
2019-05-03T22:22:20.678Z,12.40
2019-05-03T22:24:50.740Z,11.60
2019-05-03T22:27:19.749Z,11.00
2019-05-03T22:29:48.143Z,10.50
2019-05-03T22:32:16.591Z,10.10
2019-05-03T22:34:45.024Z,9.90
2019-05-03T22:37:14.279Z,9.70
2019-05-03T22:39:45.197Z,9.60
2019-05-03T22:42:14.826Z,9.50
2019-05-03T22:44:44.802Z,9.40
2019-05-03T22:47:14.738Z,9.20
2019-05-03T22:49:45.441Z,9.00
2019-05-03T22:52:15.272Z,8.90
2019-05-03T22:54:44.969Z,8.90
2019-05-03T22:57:15.125Z,8.80
2019-05-03T22:59:44.895Z,8.80
2019-05-03T23:02:16.820Z,8.70
2019-05-03T23:04:44.791Z,8.70
2019-05-03T23:07:14.870Z,8.60
2019-05-03T23:09:44.619Z,8.60
2019-05-03T23:12:13.328Z,8.60
2019-05-03T23:14:41.778Z,8.50
2019-05-03T23:17:10.147Z,8.50
2019-05-03T23:19:40.212Z,8.40
2019-05-03T23:22:10.231Z,8.30
2019-05-03T23:24:38.616Z,8.20
2019-05-03T23:27:07.022Z,8.10
2019-05-03T23:29:35.433Z,8.00
2019-05-03T23:32:04.692Z,8.00
2019-05-03T23:34:35.138Z,8.10
2019-05-03T23:37:05.250Z,8.00
2019-05-03T23:39:33.260Z,8.00
2019-05-03T23:42:01.675Z,8.00
2019-05-03T23:44:30.068Z,8.00
2019-05-03T23:47:05.082Z,8.00
2019-05-03T23:49:35.131Z,7.90
2019-05-03T23:52:04.944Z,7.90
2019-05-03T23:54:33.331Z,7.90
2019-05-03T23:57:01.763Z,7.90
2019-05-03T23:59:30.147Z,7.80
